Time;durP1;ratioP1;P1;durP2;ratioP2;P2;SDS_P1;SDS_P2;PMS_P1;PMS_P2;Temp;Humidity;BMP_temperature;BMP_pressure;BME280_temperature;BME280_humidity;BME280_pressure;Samples;Min_cycle;Max_cycle;Signal;HPM_P1;HPM_P2
2022/01/22 00:00:45;;;;;;;0.60;0.60;;;5.90;99.90;;;;;;5078883;28;20041;-79
2022/01/22 00:03:10;;;;;;;0.60;0.60;;;5.90;99.90;;;;;;5071589;28;20040;-79
2022/01/22 00:05:36;;;;;;;0.60;0.60;;;5.90;99.90;;;;;;5080107;28;20127;-79
2022/01/22 00:08:02;;;;;;;0.60;0.60;;;5.90;99.90;;;;;;5077156;28;20112;-79
2022/01/22 00:10:28;;;;;;;1.40;1.30;;;5.90;99.90;;;;;;5077944;28;20037;-80
2022/01/22 00:15:26;;;;;;;0.60;0.60;;;6.00;99.90;;;;;;5082062;28;20102;-80
2022/01/22 00:17:52;;;;;;;0.60;0.60;;;5.90;99.90;;;;;;5069554;28;20044;-80
2022/01/22 00:20:21;;;;;;;0.60;0.60;;;5.90;99.90;;;;;;5076846;28;20098;-80
2022/01/22 00:22:47;;;;;;;0.60;0.60;;;5.90;99.90;;;;;;5077128;28;20047;-80
2022/01/22 00:25:14;;;;;;;0.60;0.60;;;5.90;99.90;;;;;;5072004;28;20048;-80
2022/01/22 00:27:43;;;;;;;0.60;0.60;;;5.90;99.90;;;;;;5077419;28;20048;-80
2022/01/22 00:30:13;;;;;;;6.22;1.42;;;6.00;99.90;;;;;;5075835;28;20056;-80
2022/01/22 00:32:39;;;;;;;2.38;1.63;;;6.00;99.90;;;;;;5069868;28;20040;-80
2022/01/22 00:35:06;;;;;;;2.30;1.23;;;6.00;99.90;;;;;;5084934;28;20047;-80
2022/01/22 00:37:33;;;;;;;0.60;0.60;;;5.90;99.90;;;;;;5078702;28;20044;-80
2022/01/22 00:39:59;;;;;;;0.80;0.80;;;6.00;99.90;;;;;;5076442;28;20112;-80
2022/01/22 00:42:25;;;;;;;0.68;0.68;;;6.00;99.90;;;;;;5073327;28;20044;-80
2022/01/22 00:44:51;;;;;;;0.60;0.60;;;6.00;99.90;;;;;;5079795;28;20029;-80
2022/01/22 00:47:19;;;;;;;0.60;0.60;;;6.00;99.90;;;;;;5080102;28;20060;-80
2022/01/22 00:49:46;;;;;;;0.60;0.60;;;6.00;99.90;;;;;;5078002;28;20040;-80
2022/01/22 00:52:13;;;;;;;0.60;0.60;;;6.00;99.90;;;;;;5075123;28;20044;-80
2022/01/22 00:54:38;;;;;;;0.70;0.70;;;6.00;99.90;;;;;;5072023;28;20114;-80
2022/01/22 00:57:04;;;;;;;0.70;0.70;;;6.00;99.90;;;;;;5074048;28;20377;-80
2022/01/22 00:59:30;;;;;;;0.75;0.75;;;6.00;99.90;;;;;;5068956;28;20037;-80
2022/01/22 01:01:56;;;;;;;0.70;0.70;;;6.00;99.90;;;;;;5076897;28;20037;-80
2022/01/22 01:04:22;;;;;;;0.60;0.60;;;6.00;99.90;;;;;;5077878;28;20094;-80
2022/01/22 01:06:47;;;;;;;0.60;0.60;;;6.00;99.90;;;;;;5079486;28;20037;-80
2022/01/22 01:09:13;;;;;;;31.35;1.67;;;6.00;99.90;;;;;;5077187;28;20041;-80
2022/01/22 01:11:46;;;;;;;0.60;0.60;;;6.00;99.90;;;;;;5066978;28;20079;-80
2022/01/22 01:14:17;;;;;;;0.60;0.60;;;6.00;99.90;;;;;;5076528;28;20033;-80
2022/01/22 01:16:58;;;;;;;0.63;0.63;;;6.00;99.90;;;;;;5081343;28;20053;-80
2022/01/22 01:33:18;;;;;;;;;;;6.10;99.90;;;;;;5077279;28;20045;-79
2022/01/22 01:35:43;;;;;;;0.60;0.60;;;6.00;99.90;;;;;;5066425;28;19920;-79
2022/01/22 01:38:09;;;;;;;0.70;0.70;;;6.00;99.90;;;;;;5068055;28;20128;-78
2022/01/22 01:40:39;;;;;;;0.70;0.70;;;6.00;99.90;;;;;;5071337;28;20100;-79
2022/01/22 01:43:11;;;;;;;0.70;0.70;;;6.10;99.90;;;;;;5077849;28;20086;-80
2022/01/22 01:45:36;;;;;;;0.93;0.93;;;6.00;99.90;;;;;;5080901;28;20112;-79
2022/01/22 01:48:09;;;;;;;0.60;0.60;;;6.10;99.90;;;;;;5077270;28;20070;-80
2022/01/22 01:50:37;;;;;;;0.50;0.50;;;6.10;99.90;;;;;;5073627;28;20044;-79
2022/01/22 01:58:13;;;;;;;0.50;0.50;;;6.00;99.90;;;;;;5070706;28;20130;-80
2022/01/22 02:00:38;;;;;;;0.63;0.63;;;6.00;99.90;;;;;;5077071;28;20048;-79
2022/01/22 02:03:05;;;;;;;0.70;0.70;;;6.00;99.90;;;;;;5071296;28;20133;-80
2022/01/22 02:05:32;;;;;;;1.25;0.88;;;6.00;99.90;;;;;;5078699;28;20083;-80
2022/01/22 02:07:58;;;;;;;0.60;0.60;;;6.00;99.90;;;;;;5075361;28;20697;-80
2022/01/22 02:10:28;;;;;;;2.05;1.95;;;6.00;99.90;;;;;;5077414;28;20041;-80
2022/01/22 02:26:06;;;;;;;0.60;0.60;;;6.00;99.90;;;;;;5078082;28;20141;-80
2022/01/22 02:28:32;;;;;;;0.70;0.70;;;5.90;99.90;;;;;;5082304;28;20041;-79
2022/01/22 02:31:18;;;;;;;0.63;0.63;;;6.00;99.90;;;;;;5071750;28;20074;-80
2022/01/22 02:36:39;;;;;;;0.60;0.60;;;6.00;99.90;;;;;;5070189;28;20091;-80
2022/01/22 02:39:20;;;;;;;0.63;0.63;;;6.00;99.90;;;;;;5078305;28;20045;-79
2022/01/22 02:41:49;;;;;;;0.60;0.60;;;5.90;99.90;;;;;;5070726;28;20177;-79
2022/01/22 02:44:31;;;;;;;0.60;0.60;;;5.90;99.90;;;;;;5079650;28;20596;-79
2022/01/22 02:46:57;;;;;;;0.60;0.60;;;5.90;99.90;;;;;;5078483;28;20053;-80
2022/01/22 02:49:23;;;;;;;0.60;0.60;;;5.90;99.90;;;;;;5076174;28;20047;-79
2022/01/22 02:51:48;;;;;;;0.60;0.60;;;5.80;99.90;;;;;;5068855;28;20053;-79
2022/01/22 02:54:14;;;;;;;0.60;0.60;;;5.90;99.90;;;;;;5078155;28;20075;-79
2022/01/22 02:56:39;;;;;;;0.60;0.60;;;5.90;99.90;;;;;;5076186;28;20067;-80
2022/01/22 02:59:05;;;;;;;0.70;0.70;;;5.90;99.90;;;;;;5078524;28;20827;-79
2022/01/22 03:01:30;;;;;;;0.70;0.70;;;5.90;99.90;;;;;;5078104;28;20067;-79
2022/01/22 03:03:56;;;;;;;0.60;0.60;;;5.90;99.90;;;;;;5079705;28;20036;-79
2022/01/22 03:06:21;;;;;;;0.60;0.60;;;5.90;99.90;;;;;;5076486;28;20120;-78
2022/01/22 03:08:48;;;;;;;0.60;0.60;;;5.90;99.90;;;;;;5077858;28;20086;-78
2022/01/22 03:11:24;;;;;;;0.60;0.60;;;5.90;99.90;;;;;;5079668;28;20045;-79
2022/01/22 03:29:20;;;;;;;0.60;0.60;;;6.00;99.90;;;;;;5079727;28;20131;-80
2022/01/22 03:31:46;;;;;;;0.93;0.93;;;5.90;99.90;;;;;;5080878;28;20048;-80
2022/01/22 03:34:13;;;;;;;0.60;0.60;;;5.90;99.90;;;;;;5074386;28;20098;-80
2022/01/22 03:36:39;;;;;;;0.60;0.60;;;5.90;99.90;;;;;;5075450;28;20083;-80
2022/01/22 03:39:07;;;;;;;0.60;0.60;;;5.90;99.90;;;;;;5081620;28;20052;-80
2022/01/22 03:41:33;;;;;;;0.57;0.57;;;5.80;99.90;;;;;;5078875;28;20028;-80
2022/01/22 03:43:58;;;;;;;0.60;0.60;;;5.80;99.90;;;;;;5079325;28;20052;-80
2022/01/22 03:46:24;;;;;;;0.70;0.70;;;5.80;99.90;;;;;;5066232;28;20029;-80
2022/01/22 03:48:50;;;;;;;0.63;0.63;;;5.90;99.90;;;;;;5074961;28;20041;-80
2022/01/22 03:51:16;;;;;;;0.60;0.60;;;5.90;99.90;;;;;;5076648;28;20856;-80
2022/01/22 03:53:42;;;;;;;0.60;0.60;;;5.90;99.90;;;;;;5080564;28;20116;-80
2022/01/22 03:56:09;;;;;;;0.80;0.80;;;5.90;99.90;;;;;;5072844;28;20062;-79
2022/01/22 03:58:38;;;;;;;0.60;0.60;;;5.90;99.90;;;;;;5077618;28;20043;-80
2022/01/22 04:04:00;;;;;;;0.70;0.70;;;5.90;99.90;;;;;;5070104;28;20083;-80
2022/01/22 04:09:01;;;;;;;0.60;0.60;;;5.90;99.90;;;;;;5073383;28;20044;-80
2022/01/22 04:11:27;;;;;;;0.60;0.60;;;5.90;99.90;;;;;;5081096;28;20048;-79
2022/01/22 04:13:59;;;;;;;0.70;0.70;;;5.90;99.90;;;;;;5074769;28;20032;-79
2022/01/22 04:16:25;;;;;;;0.60;0.60;;;5.90;99.90;;;;;;5076757;28;20049;-79
2022/01/22 04:27:10;;;;;;;0.60;0.60;;;5.90;99.90;;;;;;5071543;28;20295;-79
2022/01/22 04:29:36;;;;;;;0.60;0.60;;;5.90;99.90;;;;;;5080940;28;20105;-79
2022/01/22 04:32:02;;;;;;;0.60;0.60;;;5.80;99.90;;;;;;5078056;28;20044;-79
2022/01/22 04:34:28;;;;;;;0.77;0.75;;;5.90;99.90;;;;;;5072938;28;20041;-79
2022/01/22 04:36:53;;;;;;;0.70;0.70;;;5.80;99.90;;;;;;5075367;28;20040;-79
2022/01/22 04:39:21;;;;;;;0.60;0.60;;;5.80;99.90;;;;;;5067009;28;20140;-79
2022/01/22 04:41:47;;;;;;;0.55;0.55;;;5.80;99.90;;;;;;5067791;28;20048;-80
2022/01/22 04:44:13;;;;;;;0.60;0.60;;;6.00;99.90;;;;;;5073813;28;20048;-79
2022/01/22 04:47:00;;;;;;;0.60;0.60;;;5.80;99.90;;;;;;5065904;28;20093;-79
2022/01/22 04:57:20;;;;;;;0.60;0.60;;;5.90;99.90;;;;;;5065277;28;20041;-80
2022/01/22 04:59:46;;;;;;;0.60;0.60;;;5.80;99.90;;;;;;5068343;28;20049;-79
2022/01/22 05:02:12;;;;;;;0.60;0.60;;;5.80;99.90;;;;;;5079477;28;20037;-79
2022/01/22 05:04:38;;;;;;;0.60;0.60;;;5.80;99.90;;;;;;5070850;28;20048;-79
2022/01/22 05:07:04;;;;;;;0.60;0.60;;;5.80;99.90;;;;;;5079625;28;20119;-79
2022/01/22 05:09:30;;;;;;;0.68;0.68;;;5.80;99.90;;;;;;5077080;28;20056;-79
2022/01/22 05:11:56;;;;;;;0.60;0.60;;;5.80;99.90;;;;;;5077009;28;20124;-79
2022/01/22 05:14:23;;;;;;;0.60;0.60;;;5.80;99.90;;;;;;5075950;28;20037;-79
2022/01/22 05:16:49;;;;;;;0.60;0.60;;;5.80;99.90;;;;;;5076343;28;20059;-79
2022/01/22 05:19:23;;;;;;;0.60;0.60;;;5.80;99.90;;;;;;5070551;28;20115;-79
2022/01/22 05:21:51;;;;;;;0.60;0.60;;;5.70;99.90;;;;;;5074794;28;20080;-79
2022/01/22 05:24:21;;;;;;;0.60;0.60;;;5.80;99.90;;;;;;5080451;28;20040;-79
2022/01/22 05:27:12;;;;;;;0.60;0.60;;;5.80;99.90;;;;;;5069422;28;20045;-78
2022/01/22 05:32:25;;;;;;;0.60;0.60;;;5.80;99.90;;;;;;5071425;28;20055;-79
2022/01/22 05:37:35;;;;;;;0.60;0.60;;;5.80;99.90;;;;;;5071515;28;20044;-79
2022/01/22 05:40:01;;;;;;;0.60;0.60;;;5.80;99.90;;;;;;5071811;28;20045;-79
2022/01/22 05:42:26;;;;;;;0.60;0.60;;;5.80;99.90;;;;;;5078819;28;20052;-79
2022/01/22 05:44:52;;;;;;;0.63;0.63;;;5.80;99.90;;;;;;5075881;28;20041;-80
2022/01/22 05:47:24;;;;;;;0.60;0.60;;;5.70;99.90;;;;;;5069461;28;20037;-79
2022/01/22 05:49:50;;;;;;;0.60;0.60;;;5.80;99.90;;;;;;5077706;28;20084;-80
2022/01/22 05:52:23;;;;;;;0.50;0.50;;;5.70;99.90;;;;;;5074700;28;20037;-79
2022/01/22 06:00:11;;;;;;;0.60;0.60;;;5.80;99.90;;;;;;5081575;28;20072;-79
2022/01/22 06:02:37;;;;;;;0.70;0.70;;;5.80;99.90;;;;;;5083147;28;20045;-79
2022/01/22 06:05:03;;;;;;;0.50;0.50;;;5.70;99.90;;;;;;5078683;28;20040;-79
2022/01/22 06:07:28;;;;;;;0.65;0.65;;;5.70;99.90;;;;;;5078118;28;20048;-79
2022/01/22 06:12:41;;;;;;;0.70;0.70;;;5.70;99.90;;;;;;5082496;28;20132;-79
2022/01/22 06:15:08;;;;;;;0.60;0.60;;;5.70;99.90;;;;;;5082125;28;20036;-80
2022/01/22 06:17:33;;;;;;;2.53;0.98;;;5.70;99.90;;;;;;5079095;28;20040;-80
2022/01/22 06:19:59;;;;;;;1.98;0.93;;;5.80;99.90;;;;;;5076332;28;20136;-80
2022/01/22 06:22:24;;;;;;;0.60;0.60;;;5.80;99.90;;;;;;5076624;28;20590;-80
2022/01/22 06:24:50;;;;;;;0.70;0.70;;;5.80;99.90;;;;;;5070290;28;20059;-80
2022/01/22 06:27:15;;;;;;;0.63;0.63;;;5.80;99.90;;;;;;5078003;28;20126;-80
2022/01/22 06:29:41;;;;;;;0.50;0.50;;;5.80;99.90;;;;;;5080625;28;20040;-80
2022/01/22 06:32:07;;;;;;;0.60;0.60;;;5.80;99.90;;;;;;5071470;28;20080;-80
2022/01/22 06:34:32;;;;;;;0.98;0.98;;;5.80;99.90;;;;;;5081364;28;20044;-80
2022/01/22 06:36:58;;;;;;;0.60;0.60;;;5.80;99.90;;;;;;5073710;28;20071;-80
2022/01/22 06:39:24;;;;;;;0.65;0.65;;;5.80;99.90;;;;;;5074203;28;20036;-80
2022/01/22 06:41:50;;;;;;;0.60;0.60;;;5.80;99.90;;;;;;5077482;28;20058;-80
2022/01/22 06:44:18;;;;;;;0.55;0.55;;;5.80;99.90;;;;;;5082261;28;20039;-80
2022/01/22 06:46:46;;;;;;;0.70;0.70;;;5.80;99.90;;;;;;5080916;28;20054;-79
2022/01/22 06:49:11;;;;;;;0.60;0.60;;;5.80;99.90;;;;;;5075459;28;20049;-79
2022/01/22 06:51:37;;;;;;;0.70;0.70;;;5.80;99.90;;;;;;5078667;28;20045;-79
2022/01/22 06:54:05;;;;;;;0.60;0.60;;;5.70;99.90;;;;;;5079974;28;20354;-80
2022/01/22 06:56:31;;;;;;;0.65;0.65;;;5.80;99.90;;;;;;5082171;28;20362;-79
2022/01/22 06:58:58;;;;;;;0.60;0.60;;;5.80;99.90;;;;;;5075513;28;20048;-80
2022/01/22 07:01:24;;;;;;;0.60;0.60;;;5.80;99.90;;;;;;5071979;28;20045;-80
2022/01/22 07:03:50;;;;;;;0.60;0.60;;;5.80;99.90;;;;;;5068585;28;20089;-79
2022/01/22 07:06:16;;;;;;;0.60;0.60;;;5.80;99.90;;;;;;5065558;28;20049;-80
2022/01/22 07:08:41;;;;;;;0.60;0.60;;;5.80;99.90;;;;;;5065260;28;20047;-80
2022/01/22 07:11:07;;;;;;;0.70;0.70;;;5.80;99.90;;;;;;5073514;28;20052;-80
2022/01/22 07:13:33;;;;;;;0.60;0.60;;;5.70;99.90;;;;;;5079786;28;20072;-80
2022/01/22 07:15:59;;;;;;;0.60;0.60;;;5.70;99.90;;;;;;5076356;28;20052;-80
2022/01/22 07:18:24;;;;;;;0.70;0.70;;;5.70;99.90;;;;;;5071656;28;20113;-80
2022/01/22 07:20:52;;;;;;;0.60;0.60;;;5.80;99.90;;;;;;5082061;28;20045;-80
2022/01/22 07:26:06;;;;;;;0.60;0.60;;;5.70;99.90;;;;;;5071198;28;20057;-80
2022/01/22 07:28:31;;;;;;;0.60;0.60;;;5.70;99.90;;;;;;5071521;28;20053;-81
2022/01/22 07:30:59;;;;;;;0.80;0.80;;;5.70;99.90;;;;;;5079027;28;20047;-80
2022/01/22 07:33:26;;;;;;;0.60;0.60;;;5.70;99.90;;;;;;5074795;28;20040;-80
2022/01/22 07:35:53;;;;;;;0.70;0.70;;;5.70;99.90;;;;;;5079239;28;20048;-80
2022/01/22 07:38:18;;;;;;;0.60;0.60;;;5.70;99.90;;;;;;5081874;28;20180;-80
2022/01/22 07:40:44;;;;;;;0.70;0.70;;;5.70;99.90;;;;;;5079724;28;20128;-80
2022/01/22 07:43:10;;;;;;;0.60;0.60;;;5.70;99.90;;;;;;5074341;28;20066;-80
2022/01/22 07:45:35;;;;;;;0.60;0.60;;;5.70;99.90;;;;;;5080969;28;20096;-81
2022/01/22 07:48:01;;;;;;;0.77;0.77;;;5.70;99.90;;;;;;5067274;28;20060;-81
2022/01/22 07:50:27;;;;;;;0.60;0.60;;;5.70;99.90;;;;;;5069711;28;20100;-81
2022/01/22 07:52:52;;;;;;;0.60;0.60;;;5.70;99.90;;;;;;5076400;28;20060;-80
2022/01/22 07:55:21;;;;;;;0.60;0.60;;;5.70;99.90;;;;;;5052331;28;20068;-80
2022/01/22 07:57:47;;;;;;;0.68;0.68;;;5.70;99.90;;;;;;5080241;28;20480;-80
2022/01/22 08:00:14;;;;;;;1.08;1.08;;;5.70;99.90;;;;;;5080428;28;20032;-80
2022/01/22 08:02:40;;;;;;;0.70;0.70;;;5.70;99.90;;;;;;5073118;28;20051;-80
2022/01/22 08:05:06;;;;;;;0.65;0.65;;;5.70;99.90;;;;;;5077733;28;20128;-80
2022/01/22 08:07:32;;;;;;;0.63;0.63;;;5.70;99.90;;;;;;5073604;28;20112;-80
2022/01/22 08:09:58;;;;;;;2.65;0.75;;;5.70;99.90;;;;;;5074159;28;20167;-80
2022/01/22 08:12:23;;;;;;;1.25;1.15;;;5.70;99.90;;;;;;5063792;28;20044;-80
2022/01/22 08:14:49;;;;;;;0.60;0.60;;;5.70;99.90;;;;;;5065783;28;20048;-80
2022/01/22 08:17:15;;;;;;;0.60;0.60;;;5.70;99.90;;;;;;5065278;28;20043;-80
2022/01/22 08:19:41;;;;;;;0.60;0.60;;;5.70;99.90;;;;;;5062326;28;20033;-80
2022/01/22 08:22:07;;;;;;;0.70;0.70;;;5.60;99.90;;;;;;5064899;28;20029;-79
2022/01/22 08:24:32;;;;;;;0.68;0.68;;;5.60;99.90;;;;;;5061661;28;20103;-80
2022/01/22 08:27:32;;;;;;;0.70;0.70;;;5.60;99.90;;;;;;5062820;28;20214;-80
2022/01/22 08:29:58;;;;;;;0.60;0.60;;;5.70;99.90;;;;;;5064643;28;20092;-80
2022/01/22 08:37:35;;;;;;;0.60;0.60;;;5.60;99.90;;;;;;5064665;28;20041;-80
2022/01/22 08:40:02;;;;;;;0.60;0.60;;;5.70;99.90;;;;;;5065917;28;20061;-80
2022/01/22 08:42:28;;;;;;;0.60;0.60;;;5.70;99.90;;;;;;5071868;28;20045;-80
2022/01/22 08:44:53;;;;;;;0.80;0.80;;;5.70;99.90;;;;;;5070664;28;20143;-80
2022/01/22 08:47:19;;;;;;;0.60;0.60;;;5.70;99.90;;;;;;5072811;28;20199;-80
2022/01/22 08:49:45;;;;;;;0.60;0.60;;;5.70;99.90;;;;;;5078053;28;20472;-80
2022/01/22 08:52:13;;;;;;;0.60;0.60;;;5.70;99.90;;;;;;5073868;28;20043;-80
2022/01/22 08:54:40;;;;;;;0.60;0.60;;;5.70;99.90;;;;;;5074979;28;20037;-80
2022/01/22 08:57:06;;;;;;;0.70;0.70;;;5.70;99.90;;;;;;5072626;28;20347;-80
2022/01/22 08:59:31;;;;;;;1.65;1.55;;;5.80;99.90;;;;;;5075377;28;20062;-80
2022/01/22 09:01:58;;;;;;;0.80;0.80;;;5.80;99.90;;;;;;5071287;28;20040;-80
2022/01/22 09:04:23;;;;;;;0.55;0.55;;;5.80;99.90;;;;;;5055462;28;20124;-80
2022/01/22 09:06:49;;;;;;;0.70;0.70;;;5.80;99.90;;;;;;5075377;28;20052;-80
2022/01/22 09:09:14;;;;;;;0.60;0.60;;;5.90;99.90;;;;;;5072712;28;20358;-80
2022/01/22 09:11:43;;;;;;;0.60;0.60;;;5.80;99.90;;;;;;5071312;28;20127;-79
2022/01/22 09:14:15;;;;;;;0.70;0.70;;;5.80;99.90;;;;;;5071345;28;20101;-81
2022/01/22 09:16:41;;;;;;;0.60;0.60;;;5.80;99.90;;;;;;5077894;28;20059;-80
2022/01/22 09:19:10;;;;;;;0.60;0.60;;;5.90;99.90;;;;;;5073846;28;20036;-80
2022/01/22 09:21:42;;;;;;;0.60;0.60;;;5.90;99.90;;;;;;5072445;28;20079;-80
2022/01/22 09:24:08;;;;;;;0.60;0.60;;;5.90;99.90;;;;;;5078131;28;20071;-80
2022/01/22 09:26:35;;;;;;;0.60;0.60;;;5.90;99.90;;;;;;5077074;28;20041;-80
2022/01/22 09:29:01;;;;;;;0.82;0.77;;;5.90;99.90;;;;;;5077897;28;20066;-80
2022/01/22 09:31:28;;;;;;;0.50;0.50;;;6.00;99.90;;;;;;5078310;28;20037;-80
2022/01/22 09:33:59;;;;;;;0.60;0.60;;;6.00;99.90;;;;;;5072695;28;20450;-80
2022/01/22 09:36:25;;;;;;;0.60;0.60;;;6.00;99.90;;;;;;5078595;28;20080;-80
2022/01/22 09:38:52;;;;;;;1.40;1.35;;;6.00;99.90;;;;;;5073006;28;20041;-80
2022/01/22 09:41:18;;;;;;;0.70;0.70;;;6.00;99.90;;;;;;5074535;28;20131;-79
2022/01/22 09:43:44;;;;;;;6.28;1.70;;;6.00;99.90;;;;;;5083137;28;20039;-82
2022/01/22 09:46:10;;;;;;;0.60;0.60;;;6.10;99.90;;;;;;5071193;28;20041;-79
2022/01/22 09:48:46;;;;;;;2.05;1.10;;;6.10;99.90;;;;;;5073838;28;20422;-79
2022/01/22 09:51:12;;;;;;;0.70;0.70;;;6.10;99.90;;;;;;5074244;28;20045;-79
2022/01/22 09:53:42;;;;;;;0.60;0.60;;;6.10;99.90;;;;;;5082641;28;20484;-79
2022/01/22 09:56:09;;;;;;;1.95;0.95;;;6.20;99.90;;;;;;5079576;28;20037;-80
2022/01/22 09:58:35;;;;;;;0.60;0.60;;;6.20;99.90;;;;;;5077833;28;20037;-80
2022/01/22 10:01:30;;;;;;;0.80;0.80;;;6.20;99.90;;;;;;5072121;28;20059;-79
2022/01/22 10:03:59;;;;;;;0.60;0.60;;;6.30;99.90;;;;;;5070388;28;20113;-80
2022/01/22 10:06:27;;;;;;;0.68;0.68;;;6.30;99.90;;;;;;5080464;28;20036;-80
2022/01/22 10:09:13;;;;;;;0.52;0.52;;;6.40;99.90;;;;;;5082272;28;20143;-80
2022/01/22 10:11:40;;;;;;;0.60;0.60;;;6.40;99.90;;;;;;5060070;28;20055;-80
2022/01/22 10:14:07;;;;;;;1.02;1.02;;;6.50;99.90;;;;;;5082544;28;20036;-80
2022/01/22 10:16:38;;;;;;;0.60;0.60;;;6.50;99.90;;;;;;5069932;28;20072;-80
2022/01/22 10:19:08;;;;;;;0.93;0.93;;;6.50;99.90;;;;;;5074164;28;20092;-80
2022/01/22 10:21:34;;;;;;;1.35;1.08;;;6.50;99.90;;;;;;5070778;28;20098;-80
2022/01/22 10:24:32;;;;;;;0.60;0.60;;;6.50;99.90;;;;;;5068135;28;20091;-80
2022/01/22 10:27:22;;;;;;;0.60;0.60;;;6.50;99.90;;;;;;5057109;28;20466;-80
2022/01/22 10:29:52;;;;;;;0.70;0.70;;;6.50;99.90;;;;;;5067729;28;20095;-79
2022/01/22 10:32:19;;;;;;;0.60;0.60;;;6.50;99.90;;;;;;5067306;28;20064;-80
2022/01/22 10:34:45;;;;;;;0.60;0.60;;;6.50;99.90;;;;;;5079294;28;20045;-80
2022/01/22 10:37:10;;;;;;;0.95;0.82;;;6.50;99.90;;;;;;5075257;28;20067;-80
2022/01/22 10:39:36;;;;;;;0.60;0.60;;;6.50;99.90;;;;;;5077403;28;20037;-80
2022/01/22 10:42:18;;;;;;;0.57;0.57;;;6.50;99.90;;;;;;5069888;28;20051;-80
2022/01/22 10:44:48;;;;;;;0.70;0.70;;;6.60;99.90;;;;;;5073177;28;20045;-80
2022/01/22 10:47:22;;;;;;;1.67;0.82;;;6.50;99.90;;;;;;5078230;28;20048;-80
2022/01/22 10:49:48;;;;;;;;;;;6.50;99.90;;;;;;5081659;28;20045;-79
2022/01/22 10:52:13;;;;;;;0.60;0.60;;;6.60;99.90;;;;;;5078537;28;19966;-80
2022/01/22 10:54:39;;;;;;;1.17;1.17;;;6.50;99.90;;;;;;5080569;28;20051;-79
2022/01/22 10:57:23;;;;;;;0.65;0.65;;;6.50;99.90;;;;;;5066501;28;20049;-80
2022/01/22 10:59:51;;;;;;;0.60;0.60;;;6.50;99.90;;;;;;5066240;28;20059;-80
2022/01/22 11:02:17;;;;;;;0.60;0.60;;;6.50;99.90;;;;;;5073258;28;20049;-80
2022/01/22 11:04:44;;;;;;;0.80;0.80;;;6.50;99.90;;;;;;5077660;28;20064;-80
2022/01/22 11:07:16;;;;;;;5.05;0.82;;;6.40;99.90;;;;;;5078306;28;20068;-80
2022/01/22 11:09:43;;;;;;;0.80;0.80;;;6.40;99.90;;;;;;5078611;28;20385;-80
2022/01/22 11:12:09;;;;;;;0.60;0.60;;;6.40;99.90;;;;;;5079864;28;20123;-80
2022/01/22 11:14:37;;;;;;;0.63;0.63;;;6.40;99.90;;;;;;5075954;28;20047;-80
2022/01/22 11:17:06;;;;;;;0.60;0.60;;;6.50;99.90;;;;;;5069539;28;20044;-79
2022/01/22 11:19:33;;;;;;;0.60;0.60;;;6.40;99.90;;;;;;5072292;28;20362;-79
2022/01/22 11:22:08;;;;;;;0.60;0.60;;;6.40;99.90;;;;;;5076790;28;20044;-78
2022/01/22 11:24:36;;;;;;;0.60;0.60;;;6.40;99.90;;;;;;5077894;28;20044;-79
2022/01/22 11:27:04;;;;;;;0.82;0.82;;;6.40;99.90;;;;;;5078347;28;20083;-79
2022/01/22 11:30:06;;;;;;;0.70;0.70;;;6.40;99.90;;;;;;5072778;28;20060;-78
2022/01/22 11:32:41;;;;;;;0.60;0.60;;;6.50;99.90;;;;;;4997473;28;20070;-78
2022/01/22 11:35:08;;;;;;;0.70;0.70;;;6.40;99.90;;;;;;5063415;28;20056;-79
2022/01/22 11:37:57;;;;;;;0.60;0.60;;;6.40;99.90;;;;;;5067878;28;20041;-79
2022/01/22 11:40:26;;;;;;;0.60;0.60;;;6.40;99.90;;;;;;5082764;28;20624;-78
2022/01/22 11:42:57;;;;;;;0.60;0.60;;;6.40;99.90;;;;;;5070620;28;20079;-79
2022/01/22 11:45:27;;;;;;;0.77;0.77;;;6.40;99.90;;;;;;5074635;28;20037;-79
2022/01/22 11:48:31;;;;;;;0.60;0.60;;;6.40;99.90;;;;;;5070545;28;20032;-79
2022/01/22 11:51:24;;;;;;;0.90;0.90;;;6.40;99.90;;;;;;4997542;28;20050;-79
2022/01/22 11:53:57;;;;;;;0.70;0.70;;;6.40;99.90;;;;;;4987307;28;20038;-79
2022/01/22 11:56:27;;;;;;;0.98;0.98;;;6.40;99.90;;;;;;5053693;28;20049;-79
2022/01/22 11:58:59;;;;;;;1.45;1.35;;;6.40;99.90;;;;;;5082218;28;20050;-78
2022/01/22 12:01:50;;;;;;;0.60;0.60;;;6.50;99.90;;;;;;5075305;28;20036;-79
2022/01/22 12:04:18;;;;;;;0.60;0.60;;;6.50;99.90;;;;;;5074404;28;20044;-79
2022/01/22 12:07:05;;;;;;;0.60;0.60;;;6.50;99.90;;;;;;5071603;28;20376;-79
2022/01/22 12:09:51;;;;;;;0.90;0.90;;;6.50;99.90;;;;;;5078074;28;20053;-79
2022/01/22 12:15:19;;;;;;;0.68;0.68;;;6.60;99.90;;;;;;5078817;28;20053;-79
2022/01/22 12:17:49;;;;;;;1.25;1.25;;;6.50;99.90;;;;;;5079424;28;20124;-79
2022/01/22 12:20:42;;;;;;;0.70;0.70;;;6.60;99.90;;;;;;5076858;28;20616;-79
2022/01/22 12:23:33;;;;;;;0.90;0.90;;;6.50;99.90;;;;;;5073801;28;20409;-81
2022/01/22 12:26:00;;;;;;;0.60;0.60;;;6.50;99.90;;;;;;5064029;28;20059;-81
2022/01/22 12:28:35;;;;;;;0.70;0.70;;;6.60;99.90;;;;;;5074442;28;20029;-81
2022/01/22 12:31:07;;;;;;;1.23;1.17;;;6.60;99.90;;;;;;5051973;28;20045;-80
2022/01/22 12:33:32;;;;;;;0.60;0.60;;;6.60;99.90;;;;;;5071609;28;20045;-81
2022/01/22 12:36:17;;;;;;;0.50;0.50;;;6.60;99.90;;;;;;5066491;28;20040;-80
2022/01/22 12:44:30;;;;;;;0.70;0.70;;;6.50;99.90;;;;;;5064342;28;20389;-81
2022/01/22 12:47:12;;;;;;;0.68;0.68;;;6.50;99.90;;;;;;5062031;28;20056;-81
2022/01/22 12:49:38;;;;;;;1.13;1.08;;;6.50;99.90;;;;;;5074067;28;20044;-82
2022/01/22 12:52:10;;;;;;;0.60;0.60;;;6.60;99.90;;;;;;5070207;28;20380;-81
2022/01/22 12:54:44;;;;;;;0.60;0.60;;;6.60;99.90;;;;;;5071645;28;20144;-81
2022/01/22 12:57:12;;;;;;;1.13;1.08;;;6.60;99.90;;;;;;5062120;28;20041;-81
2022/01/22 12:59:50;;;;;;;0.60;0.60;;;6.70;99.90;;;;;;5066820;28;20037;-81
2022/01/22 13:02:17;;;;;;;6.13;1.20;;;6.70;99.90;;;;;;5064179;28;20056;-81
2022/01/22 13:04:56;;;;;;;0.80;0.80;;;6.80;99.90;;;;;;5066984;28;20039;-82
2022/01/22 13:07:24;;;;;;;0.73;0.73;;;6.80;99.90;;;;;;5069520;28;20043;-81
2022/01/22 13:09:54;;;;;;;0.60;0.60;;;6.80;99.90;;;;;;5081314;28;20123;-80
2022/01/22 13:12:20;;;;;;;0.60;0.60;;;6.80;99.90;;;;;;5068006;28;20044;-80
2022/01/22 13:14:46;;;;;;;0.70;0.70;;;6.70;99.90;;;;;;5078683;28;20041;-80
2022/01/22 13:17:15;;;;;;;0.60;0.60;;;6.70;99.90;;;;;;5080592;28;20040;-80
2022/01/22 13:19:40;;;;;;;0.75;0.75;;;6.70;99.90;;;;;;5057452;28;20049;-81
2022/01/22 13:22:07;;;;;;;0.60;0.60;;;6.70;99.90;;;;;;5060118;28;20063;-79
2022/01/22 13:24:35;;;;;;;0.60;0.60;;;6.70;99.90;;;;;;5075280;28;20032;-81
2022/01/22 13:27:10;;;;;;;0.60;0.60;;;6.80;99.90;;;;;;5066532;28;20489;-80
2022/01/22 13:29:44;;;;;;;0.60;0.60;;;6.80;99.90;;;;;;5065744;28;20049;-80
2022/01/22 13:32:47;;;;;;;0.60;0.60;;;6.70;99.90;;;;;;5063909;28;20037;-80
2022/01/22 13:38:19;;;;;;;0.60;0.60;;;6.70;99.90;;;;;;5076501;28;20075;-80
2022/01/22 13:49:08;;;;;;;0.52;0.52;;;6.60;99.90;;;;;;5074023;28;20045;-80
2022/01/22 13:51:34;;;;;;;0.60;0.60;;;6.50;99.90;;;;;;5069809;28;20071;-80
2022/01/22 13:54:01;;;;;;;0.70;0.70;;;6.60;99.90;;;;;;5068742;28;20037;-81
2022/01/22 13:56:47;;;;;;;1.08;1.00;;;6.60;99.90;;;;;;5076915;28;20536;-80
2022/01/22 13:59:17;;;;;;;0.60;0.60;;;6.50;99.90;;;;;;5077017;28;20053;-80
2022/01/22 14:02:03;;;;;;;0.60;0.60;;;6.60;99.90;;;;;;5075315;28;20060;-79
2022/01/22 14:04:42;;;;;;;0.60;0.60;;;6.60;99.90;;;;;;5082871;28;20052;-79
2022/01/22 14:07:18;;;;;;;1.30;0.75;;;6.60;99.90;;;;;;5083107;28;20040;-79
2022/01/22 14:10:03;;;;;;;0.60;0.60;;;6.50;99.90;;;;;;5082812;28;20040;-79
2022/01/22 14:12:38;;;;;;;0.60;0.60;;;6.50;99.90;;;;;;5083767;28;20055;-79
2022/01/22 14:15:06;;;;;;;0.90;0.90;;;6.50;99.90;;;;;;5083865;28;20115;-79
2022/01/22 14:17:38;;;;;;;0.60;0.60;;;6.50;99.90;;;;;;5082989;28;20068;-79
2022/01/22 14:20:04;;;;;;;0.82;0.82;;;6.50;99.90;;;;;;5083233;28;20040;-80
2022/01/22 14:23:01;;;;;;;0.60;0.60;;;6.50;99.90;;;;;;5080309;28;20086;-80
2022/01/22 14:25:28;;;;;;;0.60;0.60;;;6.50;99.90;;;;;;5083869;28;20051;-80
2022/01/22 14:27:56;;;;;;;0.70;0.70;;;6.50;99.90;;;;;;5083727;28;20059;-80
2022/01/22 14:30:43;;;;;;;1.52;0.80;;;6.50;99.90;;;;;;5079759;28;20052;-80
2022/01/22 14:33:11;;;;;;;0.60;0.60;;;6.50;99.90;;;;;;5083154;28;20103;-80
2022/01/22 14:35:38;;;;;;;0.65;0.65;;;6.50;99.90;;;;;;5083192;28;20054;-80
2022/01/22 14:38:32;;;;;;;0.60;0.60;;;6.50;99.90;;;;;;5082390;28;20335;-81
2022/01/22 14:46:23;;;;;;;0.60;0.60;;;6.40;99.90;;;;;;5082278;28;20048;-80
2022/01/22 14:48:49;;;;;;;0.60;0.60;;;6.40;99.90;;;;;;5082534;28;20056;-80
2022/01/22 14:51:15;;;;;;;0.60;0.60;;;6.40;99.90;;;;;;5079886;28;20067;-80
2022/01/22 14:53:40;;;;;;;0.65;0.65;;;6.40;99.90;;;;;;5080789;28;20040;-81
2022/01/22 14:56:06;;;;;;;0.60;0.60;;;6.40;99.90;;;;;;5081342;28;20092;-81
2022/01/22 14:58:32;;;;;;;0.70;0.70;;;6.40;99.90;;;;;;5082463;28;20060;-81
2022/01/22 15:00:57;;;;;;;0.60;0.60;;;6.40;99.90;;;;;;5079290;28;20045;-81
2022/01/22 15:03:23;;;;;;;0.60;0.60;;;6.50;99.90;;;;;;5078861;28;20049;-81
2022/01/22 15:05:48;;;;;;;0.50;0.50;;;6.50;99.90;;;;;;5077987;28;20530;-81
2022/01/22 15:08:14;;;;;;;0.60;0.60;;;6.40;99.90;;;;;;5080363;28;20040;-79
2022/01/22 15:10:39;;;;;;;0.60;0.60;;;6.40;99.90;;;;;;5075964;28;20052;-79